sensor_id;sensor_type;location;lat;lon;timestamp;P1;durP1;ratioP1;P2;durP2;ratioP2
17794;SDS011;9021;50.882;4.326;2023-04-27T00:00:50;8.95;;;5.20;;
17794;SDS011;9021;50.882;4.326;2023-04-27T00:03:15;8.07;;;5.30;;
17794;SDS011;9021;50.882;4.326;2023-04-27T00:05:41;8.77;;;5.10;;
17794;SDS011;9021;50.882;4.326;2023-04-27T00:08:08;10.13;;;6.10;;
17794;SDS011;9021;50.882;4.326;2023-04-27T00:10:33;6.97;;;4.95;;
17794;SDS011;9021;50.882;4.326;2023-04-27T00:12:59;7.22;;;5.18;;
17794;SDS011;9021;50.882;4.326;2023-04-27T00:15:25;6.35;;;5.00;;
17794;SDS011;9021;50.882;4.326;2023-04-27T00:17:52;8.70;;;5.10;;
17794;SDS011;9021;50.882;4.326;2023-04-27T00:20:17;8.68;;;5.57;;
17794;SDS011;9021;50.882;4.326;2023-04-27T00:22:43;8.50;;;4.72;;
17794;SDS011;9021;50.882;4.326;2023-04-27T00:27:35;9.13;;;5.72;;
17794;SDS011;9021;50.882;4.326;2023-04-27T00:30:01;10.18;;;6.03;;
17794;SDS011;9021;50.882;4.326;2023-04-27T00:32:28;9.68;;;6.10;;
17794;SDS011;9021;50.882;4.326;2023-04-27T00:34:54;6.57;;;5.70;;
17794;SDS011;9021;50.882;4.326;2023-04-27T00:37:20;8.90;;;5.82;;
17794;SDS011;9021;50.882;4.326;2023-04-27T00:39:45;7.50;;;5.65;;
17794;SDS011;9021;50.882;4.326;2023-04-27T00:42:11;12.65;;;6.05;;
17794;SDS011;9021;50.882;4.326;2023-04-27T00:44:40;8.57;;;5.75;;
17794;SDS011;9021;50.882;4.326;2023-04-27T00:47:05;11.38;;;6.15;;
17794;SDS011;9021;50.882;4.326;2023-04-27T00:49:31;7.88;;;5.93;;
17794;SDS011;9021;50.882;4.326;2023-04-27T00:51:57;9.30;;;6.40;;
17794;SDS011;9021;50.882;4.326;2023-04-27T00:54:24;9.35;;;6.00;;
17794;SDS011;9021;50.882;4.326;2023-04-27T00:56:51;8.43;;;5.60;;
17794;SDS011;9021;50.882;4.326;2023-04-27T01:01:43;8.38;;;5.53;;
17794;SDS011;9021;50.882;4.326;2023-04-27T01:04:10;8.68;;;5.47;;
17794;SDS011;9021;50.882;4.326;2023-04-27T01:06:36;7.35;;;5.75;;
17794;SDS011;9021;50.882;4.326;2023-04-27T01:09:03;9.30;;;5.95;;
17794;SDS011;9021;50.882;4.326;2023-04-27T01:11:31;8.98;;;5.90;;
17794;SDS011;9021;50.882;4.326;2023-04-27T01:13:57;8.43;;;5.95;;
17794;SDS011;9021;50.882;4.326;2023-04-27T01:16:30;10.02;;;5.82;;
17794;SDS011;9021;50.882;4.326;2023-04-27T01:18:56;9.07;;;6.40;;
17794;SDS011;9021;50.882;4.326;2023-04-27T01:21:23;9.75;;;6.60;;
17794;SDS011;9021;50.882;4.326;2023-04-27T01:26:14;9.15;;;6.28;;
17794;SDS011;9021;50.882;4.326;2023-04-27T01:28:41;11.23;;;7.47;;
17794;SDS011;9021;50.882;4.326;2023-04-27T01:31:07;12.75;;;6.75;;
17794;SDS011;9021;50.882;4.326;2023-04-27T01:33:34;10.15;;;6.85;;
17794;SDS011;9021;50.882;4.326;2023-04-27T01:35:59;10.63;;;6.68;;
17794;SDS011;9021;50.882;4.326;2023-04-27T01:38:25;9.52;;;7.18;;
17794;SDS011;9021;50.882;4.326;2023-04-27T01:40:51;9.90;;;6.82;;
17794;SDS011;9021;50.882;4.326;2023-04-27T01:43:19;10.40;;;7.10;;
17794;SDS011;9021;50.882;4.326;2023-04-27T01:45:45;12.32;;;6.70;;
17794;SDS011;9021;50.882;4.326;2023-04-27T01:48:12;11.43;;;6.68;;
17794;SDS011;9021;50.882;4.326;2023-04-27T01:50:38;8.75;;;6.22;;
17794;SDS011;9021;50.882;4.326;2023-04-27T01:55:29;11.00;;;7.03;;
17794;SDS011;9021;50.882;4.326;2023-04-27T01:57:55;9.90;;;6.97;;
17794;SDS011;9021;50.882;4.326;2023-04-27T02:00:21;13.88;;;6.82;;
17794;SDS011;9021;50.882;4.326;2023-04-27T02:02:47;12.07;;;6.82;;
17794;SDS011;9021;50.882;4.326;2023-04-27T02:05:15;9.10;;;6.50;;
17794;SDS011;9021;50.882;4.326;2023-04-27T02:07:40;13.38;;;6.28;;
17794;SDS011;9021;50.882;4.326;2023-04-27T02:10:06;8.77;;;6.72;;
17794;SDS011;9021;50.882;4.326;2023-04-27T02:12:32;10.40;;;6.70;;
17794;SDS011;9021;50.882;4.326;2023-04-27T02:14:58;10.32;;;6.68;;
17794;SDS011;9021;50.882;4.326;2023-04-27T02:17:23;8.90;;;6.50;;
17794;SDS011;9021;50.882;4.326;2023-04-27T02:19:50;14.65;;;7.50;;
17794;SDS011;9021;50.882;4.326;2023-04-27T02:22:15;8.18;;;7.07;;
17794;SDS011;9021;50.882;4.326;2023-04-27T02:24:41;11.38;;;7.32;;
17794;SDS011;9021;50.882;4.326;2023-04-27T02:27:07;13.20;;;7.18;;
17794;SDS011;9021;50.882;4.326;2023-04-27T02:29:33;9.40;;;7.18;;
17794;SDS011;9021;50.882;4.326;2023-04-27T02:32:02;11.63;;;6.90;;
17794;SDS011;9021;50.882;4.326;2023-04-27T02:34:30;13.88;;;7.65;;
17794;SDS011;9021;50.882;4.326;2023-04-27T02:36:56;13.27;;;7.43;;
17794;SDS011;9021;50.882;4.326;2023-04-27T02:39:21;9.63;;;7.45;;
17794;SDS011;9021;50.882;4.326;2023-04-27T02:41:47;9.57;;;6.97;;
17794;SDS011;9021;50.882;4.326;2023-04-27T02:44:12;14.23;;;8.05;;
17794;SDS011;9021;50.882;4.326;2023-04-27T02:46:38;11.65;;;8.23;;
17794;SDS011;9021;50.882;4.326;2023-04-27T02:49:04;9.43;;;7.43;;
17794;SDS011;9021;50.882;4.326;2023-04-27T02:51:30;12.68;;;8.25;;
17794;SDS011;9021;50.882;4.326;2023-04-27T02:53:56;10.48;;;7.75;;
17794;SDS011;9021;50.882;4.326;2023-04-27T02:56:22;10.15;;;7.47;;
17794;SDS011;9021;50.882;4.326;2023-04-27T03:01:14;10.85;;;7.85;;
17794;SDS011;9021;50.882;4.326;2023-04-27T03:03:43;10.25;;;7.50;;
17794;SDS011;9021;50.882;4.326;2023-04-27T03:06:12;13.00;;;8.40;;
17794;SDS011;9021;50.882;4.326;2023-04-27T03:08:37;13.02;;;7.93;;
17794;SDS011;9021;50.882;4.326;2023-04-27T03:11:03;10.98;;;7.90;;
17794;SDS011;9021;50.882;4.326;2023-04-27T03:13:29;11.82;;;8.43;;
17794;SDS011;9021;50.882;4.326;2023-04-27T03:15:55;10.95;;;8.57;;
17794;SDS011;9021;50.882;4.326;2023-04-27T03:18:21;13.25;;;8.80;;
17794;SDS011;9021;50.882;4.326;2023-04-27T03:20:47;12.30;;;9.13;;
17794;SDS011;9021;50.882;4.326;2023-04-27T03:23:13;13.18;;;8.60;;
17794;SDS011;9021;50.882;4.326;2023-04-27T03:25:39;11.73;;;8.52;;
17794;SDS011;9021;50.882;4.326;2023-04-27T03:28:04;14.02;;;7.57;;
17794;SDS011;9021;50.882;4.326;2023-04-27T03:30:30;10.20;;;8.10;;
17794;SDS011;9021;50.882;4.326;2023-04-27T03:32:56;15.52;;;8.45;;
17794;SDS011;9021;50.882;4.326;2023-04-27T03:35:22;10.55;;;8.70;;
17794;SDS011;9021;50.882;4.326;2023-04-27T03:37:48;14.68;;;9.02;;
17794;SDS011;9021;50.882;4.326;2023-04-27T03:40:13;13.07;;;8.30;;
17794;SDS011;9021;50.882;4.326;2023-04-27T03:42:39;14.68;;;8.98;;
17794;SDS011;9021;50.882;4.326;2023-04-27T03:45:05;13.02;;;8.75;;
17794;SDS011;9021;50.882;4.326;2023-04-27T03:47:32;14.07;;;8.73;;
17794;SDS011;9021;50.882;4.326;2023-04-27T03:49:57;11.68;;;8.68;;
17794;SDS011;9021;50.882;4.326;2023-04-27T03:52:23;13.68;;;9.32;;
17794;SDS011;9021;50.882;4.326;2023-04-27T03:54:49;15.02;;;9.60;;
17794;SDS011;9021;50.882;4.326;2023-04-27T03:57:15;15.90;;;9.18;;
17794;SDS011;9021;50.882;4.326;2023-04-27T03:59:41;11.88;;;8.57;;
17794;SDS011;9021;50.882;4.326;2023-04-27T04:02:06;15.60;;;9.43;;
17794;SDS011;9021;50.882;4.326;2023-04-27T04:04:33;14.15;;;9.13;;
17794;SDS011;9021;50.882;4.326;2023-04-27T04:06:59;15.88;;;9.10;;
17794;SDS011;9021;50.882;4.326;2023-04-27T04:09:25;17.95;;;9.13;;
17794;SDS011;9021;50.882;4.326;2023-04-27T04:11:51;11.63;;;8.75;;
17794;SDS011;9021;50.882;4.326;2023-04-27T04:14:17;12.23;;;8.07;;
17794;SDS011;9021;50.882;4.326;2023-04-27T04:16:42;13.95;;;9.05;;
17794;SDS011;9021;50.882;4.326;2023-04-27T04:19:08;15.85;;;9.00;;
17794;SDS011;9021;50.882;4.326;2023-04-27T04:21:34;12.25;;;8.48;;
17794;SDS011;9021;50.882;4.326;2023-04-27T04:26:25;11.50;;;8.75;;
17794;SDS011;9021;50.882;4.326;2023-04-27T04:28:51;14.82;;;8.88;;
17794;SDS011;9021;50.882;4.326;2023-04-27T04:31:17;13.10;;;8.68;;
17794;SDS011;9021;50.882;4.326;2023-04-27T04:33:42;14.77;;;8.43;;
17794;SDS011;9021;50.882;4.326;2023-04-27T04:36:08;13.80;;;8.82;;
17794;SDS011;9021;50.882;4.326;2023-04-27T04:38:35;14.32;;;8.57;;
17794;SDS011;9021;50.882;4.326;2023-04-27T04:43:26;15.32;;;9.20;;
17794;SDS011;9021;50.882;4.326;2023-04-27T04:45:52;12.07;;;8.65;;
17794;SDS011;9021;50.882;4.326;2023-04-27T04:48:18;13.20;;;8.07;;
17794;SDS011;9021;50.882;4.326;2023-04-27T04:50:44;13.65;;;8.90;;
17794;SDS011;9021;50.882;4.326;2023-04-27T04:55:36;13.05;;;9.27;;
17794;SDS011;9021;50.882;4.326;2023-04-27T04:58:01;18.63;;;9.52;;
17794;SDS011;9021;50.882;4.326;2023-04-27T05:00:27;12.45;;;8.32;;
17794;SDS011;9021;50.882;4.326;2023-04-27T05:05:19;15.50;;;8.50;;
17794;SDS011;9021;50.882;4.326;2023-04-27T05:07:45;13.32;;;9.10;;
17794;SDS011;9021;50.882;4.326;2023-04-27T05:10:11;10.98;;;8.48;;
17794;SDS011;9021;50.882;4.326;2023-04-27T05:12:36;12.55;;;8.15;;
17794;SDS011;9021;50.882;4.326;2023-04-27T05:15:03;13.48;;;8.50;;
17794;SDS011;9021;50.882;4.326;2023-04-27T05:17:29;20.35;;;10.27;;
17794;SDS011;9021;50.882;4.326;2023-04-27T05:19:55;13.63;;;7.93;;
17794;SDS011;9021;50.882;4.326;2023-04-27T05:22:20;17.52;;;8.35;;
17794;SDS011;9021;50.882;4.326;2023-04-27T05:24:46;11.70;;;8.95;;
17794;SDS011;9021;50.882;4.326;2023-04-27T05:27:12;16.25;;;7.60;;
17794;SDS011;9021;50.882;4.326;2023-04-27T05:29:38;12.02;;;8.00;;
17794;SDS011;9021;50.882;4.326;2023-04-27T05:34:30;12.90;;;8.65;;
17794;SDS011;9021;50.882;4.326;2023-04-27T05:36:56;16.42;;;8.45;;
17794;SDS011;9021;50.882;4.326;2023-04-27T05:39:22;16.40;;;9.10;;
17794;SDS011;9021;50.882;4.326;2023-04-27T05:41:48;13.80;;;8.55;;
17794;SDS011;9021;50.882;4.326;2023-04-27T05:44:13;13.85;;;8.85;;
17794;SDS011;9021;50.882;4.326;2023-04-27T05:46:39;18.85;;;8.93;;
17794;SDS011;9021;50.882;4.326;2023-04-27T05:49:05;12.95;;;9.13;;
17794;SDS011;9021;50.882;4.326;2023-04-27T05:51:31;12.82;;;8.48;;
17794;SDS011;9021;50.882;4.326;2023-04-27T05:56:23;15.45;;;8.90;;
17794;SDS011;9021;50.882;4.326;2023-04-27T06:01:15;21.85;;;9.93;;
17794;SDS011;9021;50.882;4.326;2023-04-27T06:03:41;13.93;;;8.45;;
17794;SDS011;9021;50.882;4.326;2023-04-27T06:06:07;16.60;;;9.77;;
17794;SDS011;9021;50.882;4.326;2023-04-27T06:08:33;17.60;;;9.05;;
17794;SDS011;9021;50.882;4.326;2023-04-27T06:11:01;16.90;;;8.82;;
17794;SDS011;9021;50.882;4.326;2023-04-27T06:13:27;18.65;;;9.80;;
17794;SDS011;9021;50.882;4.326;2023-04-27T06:15:53;16.88;;;9.85;;
17794;SDS011;9021;50.882;4.326;2023-04-27T06:18:18;12.38;;;8.95;;
17794;SDS011;9021;50.882;4.326;2023-04-27T06:20:44;14.02;;;8.85;;
17794;SDS011;9021;50.882;4.326;2023-04-27T06:23:10;13.68;;;8.63;;
17794;SDS011;9021;50.882;4.326;2023-04-27T06:25:36;13.15;;;9.52;;
17794;SDS011;9021;50.882;4.326;2023-04-27T06:28:04;15.38;;;8.52;;
17794;SDS011;9021;50.882;4.326;2023-04-27T06:30:30;16.00;;;8.80;;
17794;SDS011;9021;50.882;4.326;2023-04-27T06:32:56;13.88;;;8.73;;
17794;SDS011;9021;50.882;4.326;2023-04-27T06:35:21;10.52;;;8.55;;
17794;SDS011;9021;50.882;4.326;2023-04-27T06:37:47;15.27;;;8.27;;
17794;SDS011;9021;50.882;4.326;2023-04-27T06:40:13;18.52;;;10.18;;
17794;SDS011;9021;50.882;4.326;2023-04-27T06:42:39;14.73;;;9.65;;
17794;SDS011;9021;50.882;4.326;2023-04-27T06:45:05;13.98;;;8.80;;
17794;SDS011;9021;50.882;4.326;2023-04-27T06:47:31;15.65;;;8.93;;
17794;SDS011;9021;50.882;4.326;2023-04-27T06:49:57;16.83;;;9.32;;
17794;SDS011;9021;50.882;4.326;2023-04-27T06:52:23;12.75;;;8.73;;
17794;SDS011;9021;50.882;4.326;2023-04-27T06:54:49;10.52;;;8.65;;
17794;SDS011;9021;50.882;4.326;2023-04-27T06:57:14;11.90;;;8.88;;
17794;SDS011;9021;50.882;4.326;2023-04-27T06:59:40;11.57;;;8.27;;
17794;SDS011;9021;50.882;4.326;2023-04-27T07:02:06;13.75;;;8.25;;
17794;SDS011;9021;50.882;4.326;2023-04-27T07:04:32;12.55;;;8.40;;
17794;SDS011;9021;50.882;4.326;2023-04-27T07:06:58;15.95;;;8.45;;
17794;SDS011;9021;50.882;4.326;2023-04-27T07:09:24;12.75;;;8.65;;
17794;SDS011;9021;50.882;4.326;2023-04-27T07:11:50;10.32;;;7.53;;
17794;SDS011;9021;50.882;4.326;2023-04-27T07:14:15;11.18;;;7.93;;
17794;SDS011;9021;50.882;4.326;2023-04-27T07:16:41;9.63;;;8.20;;
17794;SDS011;9021;50.882;4.326;2023-04-27T07:19:08;15.30;;;8.27;;
17794;SDS011;9021;50.882;4.326;2023-04-27T07:23:59;13.45;;;8.15;;
17794;SDS011;9021;50.882;4.326;2023-04-27T07:26:25;11.05;;;9.15;;
17794;SDS011;9021;50.882;4.326;2023-04-27T07:28:51;10.25;;;8.50;;
17794;SDS011;9021;50.882;4.326;2023-04-27T07:31:16;12.68;;;8.82;;
17794;SDS011;9021;50.882;4.326;2023-04-27T07:36:08;10.75;;;8.68;;
17794;SDS011;9021;50.882;4.326;2023-04-27T07:38:34;12.85;;;8.75;;
17794;SDS011;9021;50.882;4.326;2023-04-27T07:40:59;11.45;;;8.25;;
17794;SDS011;9021;50.882;4.326;2023-04-27T07:43:27;12.70;;;8.95;;
17794;SDS011;9021;50.882;4.326;2023-04-27T07:48:22;14.85;;;9.73;;
17794;SDS011;9021;50.882;4.326;2023-04-27T07:50:48;12.30;;;9.32;;
17794;SDS011;9021;50.882;4.326;2023-04-27T07:53:14;11.10;;;9.05;;
17794;SDS011;9021;50.882;4.326;2023-04-27T07:58:07;11.45;;;9.50;;
17794;SDS011;9021;50.882;4.326;2023-04-27T08:00:33;15.70;;;10.90;;
17794;SDS011;9021;50.882;4.326;2023-04-27T08:05:24;14.02;;;10.85;;
17794;SDS011;9021;50.882;4.326;2023-04-27T08:07:50;17.58;;;11.55;;
17794;SDS011;9021;50.882;4.326;2023-04-27T08:10:17;14.80;;;11.45;;
17794;SDS011;9021;50.882;4.326;2023-04-27T08:15:09;14.50;;;11.07;;
17794;SDS011;9021;50.882;4.326;2023-04-27T08:17:35;14.73;;;11.38;;
17794;SDS011;9021;50.882;4.326;2023-04-27T08:20:03;18.05;;;12.07;;
17794;SDS011;9021;50.882;4.326;2023-04-27T08:22:30;19.17;;;12.65;;
17794;SDS011;9021;50.882;4.326;2023-04-27T08:24:55;14.55;;;11.50;;
17794;SDS011;9021;50.882;4.326;2023-04-27T08:27:21;12.63;;;11.32;;
17794;SDS011;9021;50.882;4.326;2023-04-27T08:29:47;16.00;;;11.48;;
17794;SDS011;9021;50.882;4.326;2023-04-27T08:32:13;20.17;;;11.93;;
17794;SDS011;9021;50.882;4.326;2023-04-27T08:37:05;13.80;;;10.40;;
17794;SDS011;9021;50.882;4.326;2023-04-27T08:39:32;15.55;;;11.25;;
17794;SDS011;9021;50.882;4.326;2023-04-27T08:41:58;18.75;;;11.43;;
17794;SDS011;9021;50.882;4.326;2023-04-27T08:44:24;16.70;;;11.65;;
17794;SDS011;9021;50.882;4.326;2023-04-27T08:46:50;19.02;;;11.60;;
17794;SDS011;9021;50.882;4.326;2023-04-27T08:49:15;15.98;;;11.88;;
17794;SDS011;9021;50.882;4.326;2023-04-27T08:51:41;16.58;;;11.70;;
17794;SDS011;9021;50.882;4.326;2023-04-27T08:54:07;16.77;;;11.60;;
17794;SDS011;9021;50.882;4.326;2023-04-27T08:56:33;15.75;;;11.27;;
17794;SDS011;9021;50.882;4.326;2023-04-27T08:59:00;14.23;;;10.15;;
17794;SDS011;9021;50.882;4.326;2023-04-27T09:01:28;17.42;;;11.68;;
17794;SDS011;9021;50.882;4.326;2023-04-27T09:06:33;15.80;;;9.43;;
17794;SDS011;9021;50.882;4.326;2023-04-27T09:09:00;13.57;;;9.98;;
17794;SDS011;9021;50.882;4.326;2023-04-27T09:11:27;15.52;;;10.70;;
17794;SDS011;9021;50.882;4.326;2023-04-27T09:13:53;17.90;;;11.23;;
17794;SDS011;9021;50.882;4.326;2023-04-27T09:16:23;17.10;;;10.57;;
17794;SDS011;9021;50.882;4.326;2023-04-27T09:18:50;15.05;;;9.98;;
17794;SDS011;9021;50.882;4.326;2023-04-27T09:21:22;13.75;;;9.77;;
17794;SDS011;9021;50.882;4.326;2023-04-27T09:23:53;14.77;;;9.43;;
17794;SDS011;9021;50.882;4.326;2023-04-27T09:26:19;11.50;;;9.48;;
17794;SDS011;9021;50.882;4.326;2023-04-27T09:28:50;14.05;;;8.63;;
17794;SDS011;9021;50.882;4.326;2023-04-27T09:31:18;14.63;;;9.02;;
17794;SDS011;9021;50.882;4.326;2023-04-27T09:33:44;14.00;;;9.15;;
17794;SDS011;9021;50.882;4.326;2023-04-27T09:36:11;10.88;;;8.18;;
17794;SDS011;9021;50.882;4.326;2023-04-27T09:38:37;10.77;;;8.60;;
17794;SDS011;9021;50.882;4.326;2023-04-27T09:43:29;13.10;;;8.70;;
17794;SDS011;9021;50.882;4.326;2023-04-27T09:48:22;15.30;;;9.63;;
17794;SDS011;9021;50.882;4.326;2023-04-27T09:50:50;10.55;;;8.30;;
17794;SDS011;9021;50.882;4.326;2023-04-27T09:53:17;16.15;;;8.82;;
17794;SDS011;9021;50.882;4.326;2023-04-27T10:01:26;13.20;;;8.98;;
17794;SDS011;9021;50.882;4.326;2023-04-27T10:07:15;9.73;;;8.65;;
17794;SDS011;9021;50.882;4.326;2023-04-27T10:09:44;11.18;;;8.55;;
17794;SDS011;9021;50.882;4.326;2023-04-27T10:12:22;9.73;;;7.63;;
17794;SDS011;9021;50.882;4.326;2023-04-27T10:14:55;8.15;;;6.88;;
17794;SDS011;9021;50.882;4.326;2023-04-27T10:17:33;11.93;;;7.72;;
17794;SDS011;9021;50.882;4.326;2023-04-27T10:20:01;11.50;;;7.13;;
17794;SDS011;9021;50.882;4.326;2023-04-27T10:22:43;11.25;;;7.15;;
17794;SDS011;9021;50.882;4.326;2023-04-27T10:27:42;10.48;;;7.18;;
17794;SDS011;9021;50.882;4.326;2023-04-27T10:30:11;10.95;;;7.35;;
17794;SDS011;9021;50.882;4.326;2023-04-27T10:32:48;9.43;;;7.03;;
17794;SDS011;9021;50.882;4.326;2023-04-27T10:35:42;9.80;;;6.05;;
17794;SDS011;9021;50.882;4.326;2023-04-27T10:38:09;7.68;;;5.85;;
17794;SDS011;9021;50.882;4.326;2023-04-27T10:40:52;9.85;;;6.20;;
17794;SDS011;9021;50.882;4.326;2023-04-27T10:43:22;11.15;;;6.13;;
17794;SDS011;9021;50.882;4.326;2023-04-27T10:45:50;10.10;;;6.35;;
17794;SDS011;9021;50.882;4.326;2023-04-27T10:48:16;7.68;;;5.68;;
17794;SDS011;9021;50.882;4.326;2023-04-27T10:50:41;10.73;;;7.22;;
17794;SDS011;9021;50.882;4.326;2023-04-27T10:53:11;12.07;;;6.22;;
17794;SDS011;9021;50.882;4.326;2023-04-27T10:55:38;9.45;;;6.50;;
17794;SDS011;9021;50.882;4.326;2023-04-27T10:58:04;9.52;;;6.18;;
17794;SDS011;9021;50.882;4.326;2023-04-27T11:00:32;9.75;;;6.90;;
17794;SDS011;9021;50.882;4.326;2023-04-27T11:03:10;9.15;;;6.30;;
17794;SDS011;9021;50.882;4.326;2023-04-27T11:05:43;9.27;;;7.32;;
17794;SDS011;9021;50.882;4.326;2023-04-27T11:08:11;9.82;;;6.32;;
17794;SDS011;9021;50.882;4.326;2023-04-27T11:10:48;8.38;;;6.70;;
17794;SDS011;9021;50.882;4.326;2023-04-27T11:13:24;10.23;;;6.78;;
17794;SDS011;9021;50.882;4.326;2023-04-27T11:15:56;10.10;;;6.63;;
17794;SDS011;9021;50.882;4.326;2023-04-27T11:18:23;7.05;;;5.57;;
17794;SDS011;9021;50.882;4.326;2023-04-27T11:20:51;9.70;;;5.88;;
17794;SDS011;9021;50.882;4.326;2023-04-27T11:23:28;12.63;;;7.55;;
17794;SDS011;9021;50.882;4.326;2023-04-27T11:26:07;13.10;;;7.68;;
17794;SDS011;9021;50.882;4.326;2023-04-27T11:28:44;9.93;;;6.50;;
17794;SDS011;9021;50.882;4.326;2023-04-27T11:31:43;7.18;;;6.07;;
17794;SDS011;9021;50.882;4.326;2023-04-27T11:34:17;8.82;;;5.80;;
17794;SDS011;9021;50.882;4.326;2023-04-27T11:39:26;9.63;;;5.97;;
17794;SDS011;9021;50.882;4.326;2023-04-27T11:41:53;9.25;;;6.25;;
17794;SDS011;9021;50.882;4.326;2023-04-27T11:44:23;6.25;;;5.18;;
17794;SDS011;9021;50.882;4.326;2023-04-27T11:46:50;9.45;;;5.40;;
17794;SDS011;9021;50.882;4.326;2023-04-27T11:49:17;10.98;;;6.15;;
17794;SDS011;9021;50.882;4.326;2023-04-27T11:51:44;8.02;;;4.88;;
17794;SDS011;9021;50.882;4.326;2023-04-27T11:54:10;7.85;;;5.53;;
17794;SDS011;9021;50.882;4.326;2023-04-27T11:56:37;8.52;;;5.10;;
17794;SDS011;9021;50.882;4.326;2023-04-27T11:59:04;7.72;;;5.53;;
17794;SDS011;9021;50.882;4.326;2023-04-27T12:01:41;7.18;;;5.32;;
17794;SDS011;9021;50.882;4.326;2023-04-27T12:04:07;8.70;;;5.60;;
17794;SDS011;9021;50.882;4.326;2023-04-27T12:06:32;12.98;;;5.25;;
17794;SDS011;9021;50.882;4.326;2023-04-27T12:11:27;9.85;;;5.72;;
17794;SDS011;9021;50.882;4.326;2023-04-27T12:13:52;11.00;;;6.43;;
17794;SDS011;9021;50.882;4.326;2023-04-27T12:16:19;9.52;;;7.15;;
17794;SDS011;9021;50.882;4.326;2023-04-27T12:18:48;8.52;;;6.22;;
17794;SDS011;9021;50.882;4.326;2023-04-27T12:21:14;9.02;;;7.00;;
17794;SDS011;9021;50.882;4.326;2023-04-27T12:23:41;8.75;;;6.80;;
17794;SDS011;9021;50.882;4.326;2023-04-27T12:26:07;9.98;;;7.05;;
17794;SDS011;9021;50.882;4.326;2023-04-27T12:28:33;11.63;;;7.38;;
17794;SDS011;9021;50.882;4.326;2023-04-27T12:33:27;7.45;;;5.43;;
17794;SDS011;9021;50.882;4.326;2023-04-27T12:35:54;8.10;;;5.70;;
17794;SDS011;9021;50.882;4.326;2023-04-27T12:40:46;11.43;;;6.03;;
17794;SDS011;9021;50.882;4.326;2023-04-27T12:43:12;12.15;;;6.03;;
17794;SDS011;9021;50.882;4.326;2023-04-27T12:45:38;10.85;;;6.45;;
17794;SDS011;9021;50.882;4.326;2023-04-27T12:50:32;10.02;;;7.10;;
17794;SDS011;9021;50.882;4.326;2023-04-27T12:53:01;8.35;;;6.28;;
17794;SDS011;9021;50.882;4.326;2023-04-27T12:55:27;10.48;;;6.65;;
17794;SDS011;9021;50.882;4.326;2023-04-27T13:00:21;10.82;;;7.55;;
17794;SDS011;9021;50.882;4.326;2023-04-27T13:02:49;12.95;;;6.75;;
17794;SDS011;9021;50.882;4.326;2023-04-27T13:05:15;13.73;;;7.85;;
17794;SDS011;9021;50.882;4.326;2023-04-27T13:07:41;12.15;;;7.18;;
17794;SDS011;9021;50.882;4.326;2023-04-27T13:10:07;12.80;;;7.68;;
17794;SDS011;9021;50.882;4.326;2023-04-27T13:14:58;11.88;;;7.10;;
17794;SDS011;9021;50.882;4.326;2023-04-27T13:17:24;9.77;;;7.25;;
17794;SDS011;9021;50.882;4.326;2023-04-27T13:19:50;12.15;;;7.03;;
17794;SDS011;9021;50.882;4.326;2023-04-27T13:22:16;12.77;;;8.77;;
17794;SDS011;9021;50.882;4.326;2023-04-27T13:27:08;11.18;;;8.18;;
17794;SDS011;9021;50.882;4.326;2023-04-27T13:29:34;11.60;;;7.32;;
17794;SDS011;9021;50.882;4.326;2023-04-27T13:31:59;14.13;;;8.10;;
17794;SDS011;9021;50.882;4.326;2023-04-27T13:34:25;12.75;;;8.20;;
17794;SDS011;9021;50.882;4.326;2023-04-27T13:36:50;12.90;;;7.25;;
17794;SDS011;9021;50.882;4.326;2023-04-27T13:39:16;9.15;;;7.60;;
17794;SDS011;9021;50.882;4.326;2023-04-27T13:41:42;12.02;;;8.05;;
17794;SDS011;9021;50.882;4.326;2023-04-27T13:44:07;13.68;;;8.52;;
17794;SDS011;9021;50.882;4.326;2023-04-27T13:46:33;8.82;;;7.50;;
17794;SDS011;9021;50.882;4.326;2023-04-27T13:48:59;12.63;;;8.25;;
17794;SDS011;9021;50.882;4.326;2023-04-27T13:51:25;11.85;;;7.40;;
17794;SDS011;9021;50.882;4.326;2023-04-27T13:53:53;10.80;;;7.15;;
17794;SDS011;9021;50.882;4.326;2023-04-27T13:56:19;12.45;;;7.05;;
17794;SDS011;9021;50.882;4.326;2023-04-27T14:01:11;9.38;;;7.70;;
17794;SDS011;9021;50.882;4.326;2023-04-27T14:03:37;9.63;;;6.57;;
17794;SDS011;9021;50.882;4.326;2023-04-27T14:06:02;12.80;;;7.45;;
17794;SDS011;9021;50.882;4.326;2023-04-27T14:08:29;11.18;;;7.57;;
17794;SDS011;9021;50.882;4.326;2023-04-27T14:10:55;12.75;;;7.35;;
17794;SDS011;9021;50.882;4.326;2023-04-27T14:13:22;10.05;;;7.15;;
17794;SDS011;9021;50.882;4.326;2023-04-27T14:15:48;11.73;;;7.10;;
17794;SDS011;9021;50.882;4.326;2023-04-27T14:18:14;9.27;;;7.72;;
17794;SDS011;9021;50.882;4.326;2023-04-27T14:20:40;12.43;;;7.38;;
17794;SDS011;9021;50.882;4.326;2023-04-27T14:23:06;10.52;;;7.68;;
17794;SDS011;9021;50.882;4.326;2023-04-27T14:25:33;11.85;;;6.65;;
17794;SDS011;9021;50.882;4.326;2023-04-27T14:27:59;10.75;;;6.90;;
17794;SDS011;9021;50.882;4.326;2023-04-27T14:30:26;13.38;;;8.73;;
17794;SDS011;9021;50.882;4.326;2023-04-27T14:32:52;11.75;;;8.23;;
17794;SDS011;9021;50.882;4.326;2023-04-27T14:37:48;9.88;;;7.70;;
17794;SDS011;9021;50.882;4.326;2023-04-27T14:40:14;9.68;;;7.85;;
17794;SDS011;9021;50.882;4.326;2023-04-27T14:42:40;15.43;;;8.57;;
17794;SDS011;9021;50.882;4.326;2023-04-27T14:45:06;10.15;;;7.43;;
17794;SDS011;9021;50.882;4.326;2023-04-27T14:47:32;11.63;;;7.28;;
17794;SDS011;9021;50.882;4.326;2023-04-27T14:49:58;15.90;;;8.18;;
17794;SDS011;9021;50.882;4.326;2023-04-27T14:52:23;10.77;;;7.70;;
17794;SDS011;9021;50.882;4.326;2023-04-27T14:54:49;10.02;;;7.55;;
17794;SDS011;9021;50.882;4.326;2023-04-27T14:57:15;12.02;;;7.20;;
17794;SDS011;9021;50.882;4.326;2023-04-27T14:59:40;9.52;;;7.32;;
17794;SDS011;9021;50.882;4.326;2023-04-27T15:02:06;9.95;;;7.95;;
17794;SDS011;9021;50.882;4.326;2023-04-27T15:04:32;9.63;;;7.50;;
17794;SDS011;9021;50.882;4.326;2023-04-27T15:06:59;11.50;;;8.27;;
17794;SDS011;9021;50.882;4.326;2023-04-27T15:09:25;9.15;;;7.45;;
17794;SDS011;9021;50.882;4.326;2023-04-27T15:11:51;12.13;;;8.15;;
17794;SDS011;9021;50.882;4.326;2023-04-27T15:14:17;8.00;;;6.95;;
17794;SDS011;9021;50.882;4.326;2023-04-27T15:16:42;9.68;;;7.20;;
17794;SDS011;9021;50.882;4.326;2023-04-27T15:19:08;10.23;;;7.70;;
17794;SDS011;9021;50.882;4.326;2023-04-27T15:21:34;13.00;;;8.80;;
17794;SDS011;9021;50.882;4.326;2023-04-27T15:24:00;8.48;;;6.82;;
17794;SDS011;9021;50.882;4.326;2023-04-27T15:26:25;16.67;;;8.35;;
17794;SDS011;9021;50.882;4.326;2023-04-27T15:28:51;12.90;;;7.75;;
17794;SDS011;9021;50.882;4.326;2023-04-27T15:31:17;19.20;;;12.00;;
17794;SDS011;9021;50.882;4.326;2023-04-27T15:33:43;13.60;;;7.68;;
17794;SDS011;9021;50.882;4.326;2023-04-27T15:36:09;11.70;;;8.15;;
17794;SDS011;9021;50.882;4.326;2023-04-27T15:38:35;12.95;;;8.00;;
17794;SDS011;9021;50.882;4.326;2023-04-27T15:41:00;11.77;;;7.25;;
17794;SDS011;9021;50.882;4.326;2023-04-27T15:43:26;13.57;;;8.93;;
17794;SDS011;9021;50.882;4.326;2023-04-27T15:45:52;16.65;;;9.65;;
17794;SDS011;9021;50.882;4.326;2023-04-27T15:48:18;14.50;;;8.95;;
17794;SDS011;9021;50.882;4.326;2023-04-27T15:50:45;12.13;;;8.38;;
17794;SDS011;9021;50.882;4.326;2023-04-27T15:53:12;12.82;;;9.35;;
17794;SDS011;9021;50.882;4.326;2023-04-27T15:55:38;14.02;;;9.05;;
17794;SDS011;9021;50.882;4.326;2023-04-27T15:58:04;12.13;;;9.13;;
17794;SDS011;9021;50.882;4.326;2023-04-27T16:00:30;14.13;;;9.43;;
17794;SDS011;9021;50.882;4.326;2023-04-27T16:02:56;12.95;;;8.82;;
17794;SDS011;9021;50.882;4.326;2023-04-27T16:05:21;17.77;;;9.10;;
17794;SDS011;9021;50.882;4.326;2023-04-27T16:07:47;11.48;;;8.95;;
17794;SDS011;9021;50.882;4.326;2023-04-27T16:10:12;16.00;;;9.70;;
17794;SDS011;9021;50.882;4.326;2023-04-27T16:12:38;13.10;;;9.38;;
17794;SDS011;9021;50.882;4.326;2023-04-27T16:15:04;11.73;;;9.40;;
17794;SDS011;9021;50.882;4.326;2023-04-27T16:17:31;13.38;;;10.20;;